Time;durP1;ratioP1;P1;durP2;ratioP2;P2;SDS_P1;SDS_P2;PMS_P1;PMS_P2;Temp;Humidity;BMP_temperature;BMP_pressure;BME280_temperature;BME280_humidity;BME280_pressure;Samples;Min_cycle;Max_cycle;Signal;HPM_P1;HPM_P2
2023/06/15 00:02:11;;;;;;;0.10;0.10;;;;;;;;;;5137677;27;20070;-45
2023/06/15 00:04:36;;;;;;;0.10;0.10;;;;;;;;;;5137562;27;20050;-45
2023/06/15 00:07:02;;;;;;;0.10;0.10;;;;;;;;;;5118337;27;20043;-47
2023/06/15 00:09:28;;;;;;;0.10;0.10;;;;;;;;;;5115761;28;20119;-45
2023/06/15 00:11:53;;;;;;;0.10;0.10;;;;;;;;;;5136856;27;20538;-48
2023/06/15 00:14:19;;;;;;;0.10;0.10;;;;;;;;;;5136702;27;20046;-45
2023/06/15 00:16:45;;;;;;;0.10;0.10;;;;;;;;;;5121064;27;20339;-45
2023/06/15 00:19:11;;;;;;;0.10;0.10;;;;;;;;;;5116503;28;20079;-45
2023/06/15 00:21:41;;;;;;;0.10;0.10;;;;;;;;;;5134939;27;20242;-46
2023/06/15 00:24:07;;;;;;;0.10;0.10;;;;;;;;;;5132733;27;20055;-46
2023/06/15 00:26:33;;;;;;;0.10;0.10;;;;;;;;;;5118746;27;20051;-45
2023/06/15 00:28:58;;;;;;;0.10;0.10;;;;;;;;;;5116114;28;20058;-44
2023/06/15 00:31:24;;;;;;;0.10;0.10;;;;;;;;;;5132335;27;20050;-46
2023/06/15 00:33:49;;;;;;;0.10;0.10;;;;;;;;;;5136778;27;20062;-45
2023/06/15 00:36:15;;;;;;;0.10;0.10;;;;;;;;;;5125774;27;20491;-46
2023/06/15 00:38:40;;;;;;;0.10;0.10;;;;;;;;;;5115810;28;20626;-45
2023/06/15 00:41:06;;;;;;;0.10;0.10;;;;;;;;;;5129883;27;20618;-45
2023/06/15 00:43:31;;;;;;;0.13;0.13;;;;;;;;;;5135875;27;20077;-46
2023/06/15 00:45:57;;;;;;;0.10;0.10;;;;;;;;;;5128319;27;20043;-46
2023/06/15 00:48:23;;;;;;;0.10;0.10;;;;;;;;;;5116039;28;20236;-45
2023/06/15 00:50:48;;;;;;;0.10;0.10;;;;;;;;;;5126813;27;20054;-46
2023/06/15 00:53:14;;;;;;;0.10;0.10;;;;;;;;;;5136886;27;20051;-46
2023/06/15 00:55:41;;;;;;;0.10;0.10;;;;;;;;;;5130477;27;20495;-47
2023/06/15 00:58:06;;;;;;;0.10;0.10;;;;;;;;;;5116168;28;20081;-46
2023/06/15 01:00:33;;;;;;;0.10;0.10;;;;;;;;;;5124778;27;20054;-46
2023/06/15 01:03:00;;;;;;;0.10;0.10;;;;;;;;;;5136948;27;20039;-45
2023/06/15 01:05:25;;;;;;;0.10;0.10;;;;;;;;;;5133065;27;20058;-45
2023/06/15 01:07:52;;;;;;;0.10;0.10;;;;;;;;;;5115768;28;20081;-46
2023/06/15 01:10:19;;;;;;;0.10;0.10;;;;;;;;;;5122834;27;20050;-47
2023/06/15 01:12:45;;;;;;;0.10;0.10;;;;;;;;;;5136070;27;20064;-45
2023/06/15 01:15:11;;;;;;;0.10;0.10;;;;;;;;;;5134593;27;20062;-46
2023/06/15 01:17:45;;;;;;;0.10;0.10;;;;;;;;;;5097177;28;20074;-48
2023/06/15 01:20:15;;;;;;;0.10;0.10;;;;;;;;;;5098255;28;20055;-45
2023/06/15 01:22:45;;;;;;;0.10;0.10;;;;;;;;;;5097200;28;20051;-46
2023/06/15 01:25:17;;;;;;;0.10;0.10;;;;;;;;;;5114849;27;20088;-46
2023/06/15 01:27:44;;;;;;;0.10;0.10;;;;;;;;;;5115467;28;20297;-46
2023/06/15 01:30:10;;;;;;;0.10;0.10;;;;;;;;;;5097246;28;20482;-45
2023/06/15 01:32:35;;;;;;;0.10;0.10;;;;;;;;;;5096568;28;20200;-45
2023/06/15 01:35:01;;;;;;;0.10;0.10;;;;;;;;;;5096682;28;20043;-46
2023/06/15 01:37:27;;;;;;;0.10;0.10;;;;;;;;;;5114157;28;20058;-45
2023/06/15 01:39:52;;;;;;;0.10;0.10;;;;;;;;;;5118923;27;20303;-45
2023/06/15 01:42:18;;;;;;;0.10;0.10;;;;;;;;;;5135776;27;20061;-45
2023/06/15 01:44:44;;;;;;;0.10;0.10;;;;;;;;;;5134869;27;20043;-46
2023/06/15 01:47:11;;;;;;;0.10;0.10;;;;;;;;;;5118098;27;20051;-47
2023/06/15 01:49:37;;;;;;;0.10;0.10;;;;;;;;;;5115607;27;20058;-47
2023/06/15 01:52:02;;;;;;;0.10;0.10;;;;;;;;;;5112953;28;20483;-45
2023/06/15 01:54:28;;;;;;;0.15;0.15;;;;;;;;;;5114266;28;20146;-45
2023/06/15 01:56:53;;;;;;;0.10;0.10;;;;;;;;;;5114440;28;20093;-46
2023/06/15 01:59:19;;;;;;;0.10;0.10;;;;;;;;;;5115136;28;20039;-45
2023/06/15 02:01:44;;;;;;;0.10;0.10;;;;;;;;;;5134225;27;20051;-48
2023/06/15 02:04:10;;;;;;;0.10;0.10;;;;;;;;;;5135149;27;20985;-44
2023/06/15 02:06:36;;;;;;;0.10;0.10;;;;;;;;;;5123840;27;20114;-45
2023/06/15 02:09:02;;;;;;;0.10;0.10;;;;;;;;;;5113747;27;20304;-45
2023/06/15 02:11:27;;;;;;;0.10;0.10;;;;;;;;;;5131857;27;20542;-45
2023/06/15 02:13:53;;;;;;;0.10;0.10;;;;;;;;;;5134450;27;20046;-45
2023/06/15 02:16:19;;;;;;;0.10;0.10;;;;;;;;;;5126546;27;20483;-46
2023/06/15 02:18:45;;;;;;;0.10;0.10;;;;;;;;;;5114059;28;20273;-45
2023/06/15 02:21:11;;;;;;;0.10;0.10;;;;;;;;;;5128969;27;20490;-47
2023/06/15 02:23:37;;;;;;;0.10;0.10;;;;;;;;;;5123864;27;20503;-46
2023/06/15 02:26:02;;;;;;;0.10;0.10;;;;;;;;;;5114407;27;20075;-45
2023/06/15 02:28:28;;;;;;;0.10;0.10;;;;;;;;;;5114414;28;20058;-46
2023/06/15 02:30:53;;;;;;;0.10;0.10;;;;;;;;;;5126363;27;20130;-45
2023/06/15 02:33:19;;;;;;;0.10;0.10;;;;;;;;;;5120765;27;20062;-44
2023/06/15 02:35:44;;;;;;;0.10;0.10;;;;;;;;;;5113894;28;20051;-46
2023/06/15 02:38:10;;;;;;;0.10;0.10;;;;;;;;;;5113732;28;20043;-45
2023/06/15 02:40:36;;;;;;;0.10;0.10;;;;;;;;;;5095833;28;20839;-45
2023/06/15 02:43:02;;;;;;;0.10;0.10;;;;;;;;;;5114654;28;20312;-45
2023/06/15 02:45:27;;;;;;;0.10;0.10;;;;;;;;;;5114723;28;20371;-49
2023/06/15 02:47:53;;;;;;;0.10;0.10;;;;;;;;;;5095505;28;20212;-47
2023/06/15 02:50:18;;;;;;;0.10;0.10;;;;;;;;;;5121615;27;20047;-47
2023/06/15 02:52:45;;;;;;;0.10;0.10;;;;;;;;;;5108792;28;20200;-48
2023/06/15 02:55:13;;;;;;;0.10;0.10;;;;;;;;;;5113903;27;20130;-47
2023/06/15 02:57:38;;;;;;;0.10;0.10;;;;;;;;;;5113751;27;20045;-49
2023/06/15 03:00:05;;;;;;;0.10;0.10;;;;;;;;;;5118753;27;20568;-47
2023/06/15 03:02:31;;;;;;;0.10;0.10;;;;;;;;;;5116515;27;20044;-47
2023/06/15 03:04:56;;;;;;;0.10;0.10;;;;;;;;;;5135002;27;20089;-48
2023/06/15 03:07:22;;;;;;;0.10;0.10;;;;;;;;;;5118179;27;20477;-47
2023/06/15 03:09:49;;;;;;;0.10;0.10;;;;;;;;;;5098073;27;20059;-47
2023/06/15 03:12:15;;;;;;;0.43;0.28;;;;;;;;;;5115831;27;20043;-48
2023/06/15 03:14:44;;;;;;;0.10;0.10;;;;;;;;;;5133917;27;20134;-47
2023/06/15 03:17:11;;;;;;;0.10;0.10;;;;;;;;;;5098486;28;20044;-47
2023/06/15 03:19:36;;;;;;;0.10;0.10;;;;;;;;;;5095367;27;20047;-47
2023/06/15 03:22:02;;;;;;;0.10;0.10;;;;;;;;;;5136619;27;20057;-47
2023/06/15 03:24:30;;;;;;;0.10;0.10;;;;;;;;;;5119034;27;20088;-47
2023/06/15 03:26:57;;;;;;;0.10;0.10;;;;;;;;;;5116862;28;20410;-47
2023/06/15 03:29:26;;;;;;;0.10;0.10;;;;;;;;;;5117041;28;20070;-47
2023/06/15 03:31:52;;;;;;;0.10;0.10;;;;;;;;;;5137277;27;20073;-47
2023/06/15 03:34:18;;;;;;;0.10;0.10;;;;;;;;;;5130296;27;20043;-48
2023/06/15 03:36:43;;;;;;;0.10;0.10;;;;;;;;;;5116512;27;20652;-47
2023/06/15 03:39:09;;;;;;;0.10;0.10;;;;;;;;;;5116416;28;20035;-47
2023/06/15 03:41:37;;;;;;;0.10;0.10;;;;;;;;;;5134420;27;20103;-47
2023/06/15 03:44:02;;;;;;;0.10;0.10;;;;;;;;;;5137176;27;20276;-47
2023/06/15 03:46:28;;;;;;;0.10;0.10;;;;;;;;;;5131065;27;20363;-47
2023/06/15 03:48:54;;;;;;;0.10;0.10;;;;;;;;;;5116772;28;20156;-47
2023/06/15 03:51:20;;;;;;;0.10;0.10;;;;;;;;;;5098312;28;20116;-47
2023/06/15 03:53:45;;;;;;;0.10;0.10;;;;;;;;;;5116593;28;20186;-47
2023/06/15 03:56:11;;;;;;;0.10;0.10;;;;;;;;;;5116729;28;20069;-47
2023/06/15 03:58:36;;;;;;;0.10;0.10;;;;;;;;;;5097764;28;20047;-47
2023/06/15 04:01:04;;;;;;;0.10;0.10;;;;;;;;;;5129752;27;20047;-47
2023/06/15 04:03:34;;;;;;;0.10;0.10;;;;;;;;;;5137007;27;20068;-47
2023/06/15 04:06:01;;;;;;;0.10;0.10;;;;;;;;;;5135893;27;20523;-48
2023/06/15 04:08:27;;;;;;;0.10;0.10;;;;;;;;;;5115858;28;20434;-47
2023/06/15 04:10:52;;;;;;;0.10;0.10;;;;;;;;;;5128566;27;20055;-47
2023/06/15 04:13:18;;;;;;;0.10;0.10;;;;;;;;;;5136780;27;20507;-47
2023/06/15 04:15:43;;;;;;;0.10;0.10;;;;;;;;;;5137468;27;20183;-47
2023/06/15 04:18:09;;;;;;;0.10;0.10;;;;;;;;;;5116691;27;20121;-47
2023/06/15 04:20:36;;;;;;;0.10;0.10;;;;;;;;;;5125599;27;20047;-48
2023/06/15 04:23:01;;;;;;;0.10;0.10;;;;;;;;;;5122916;27;20148;-47
2023/06/15 04:25:27;;;;;;;0.10;0.10;;;;;;;;;;5136784;27;20094;-47
2023/06/15 04:27:53;;;;;;;0.10;0.10;;;;;;;;;;5100899;28;20410;-47
2023/06/15 04:30:24;;;;;;;0.10;0.10;;;;;;;;;;5123014;27;20129;-48
2023/06/15 04:32:59;;;;;;;0.10;0.10;;;;;;;;;;5118261;27;20074;-47
2023/06/15 04:35:28;;;;;;;0.10;0.10;;;;;;;;;;5117669;27;20050;-49
2023/06/15 04:37:57;;;;;;;0.10;0.10;;;;;;;;;;5115223;28;20047;-46
2023/06/15 04:40:22;;;;;;;0.10;0.10;;;;;;;;;;5123488;27;20304;-47
2023/06/15 04:42:48;;;;;;;0.10;0.10;;;;;;;;;;5136477;27;20043;-47
2023/06/15 04:45:13;;;;;;;0.10;0.10;;;;;;;;;;5136437;27;20517;-47
2023/06/15 04:47:41;;;;;;;0.10;0.10;;;;;;;;;;5121825;27;20392;-48
2023/06/15 04:50:08;;;;;;;0.10;0.10;;;;;;;;;;5120989;27;20336;-47
2023/06/15 04:52:34;;;;;;;0.10;0.10;;;;;;;;;;5136494;27;20047;-47
2023/06/15 04:55:00;;;;;;;0.10;0.10;;;;;;;;;;5136102;27;20085;-47
2023/06/15 04:57:25;;;;;;;0.10;0.10;;;;;;;;;;5111349;28;20047;-47
2023/06/15 04:59:51;;;;;;;0.10;0.10;;;;;;;;;;5118354;27;20147;-47
2023/06/15 05:02:16;;;;;;;0.10;0.10;;;;;;;;;;5135861;27;20039;-47
2023/06/15 05:04:42;;;;;;;0.10;0.10;;;;;;;;;;5135567;27;20051;-47
2023/06/15 05:07:07;;;;;;;0.10;0.10;;;;;;;;;;5114983;27;20051;-47
2023/06/15 05:09:33;;;;;;;0.10;0.10;;;;;;;;;;5109324;27;20043;-49
2023/06/15 05:11:58;;;;;;;0.10;0.10;;;;;;;;;;5111508;28;20043;-50
2023/06/15 05:14:26;;;;;;;0.10;0.10;;;;;;;;;;5112491;28;20046;-48
2023/06/15 05:16:51;;;;;;;0.10;0.10;;;;;;;;;;5114316;28;20047;-48
2023/06/15 05:19:17;;;;;;;0.10;0.10;;;;;;;;;;5113042;28;20051;-48
2023/06/15 05:21:43;;;;;;;0.10;0.10;;;;;;;;;;5113265;27;20051;-47
2023/06/15 05:24:08;;;;;;;0.10;0.10;;;;;;;;;;5123569;27;20585;-47
2023/06/15 05:26:34;;;;;;;0.10;0.10;;;;;;;;;;5112451;28;20066;-47
2023/06/15 05:28:59;;;;;;;0.10;0.10;;;;;;;;;;5113757;28;20099;-47
2023/06/15 05:31:25;;;;;;;0.10;0.10;;;;;;;;;;5114510;27;20051;-48
2023/06/15 05:33:50;;;;;;;0.10;0.10;;;;;;;;;;5112736;28;20141;-47
2023/06/15 05:36:16;;;;;;;0.10;0.10;;;;;;;;;;5113287;28;20047;-47
2023/06/15 05:38:59;;;;;;;0.20;0.20;;;;;;;;;;5112698;28;20324;-48
2023/06/15 05:41:25;;;;;;;0.10;0.10;;;;;;;;;;5114962;27;20312;-48
2023/06/15 05:43:50;;;;;;;0.10;0.10;;;;;;;;;;5111432;27;20059;-47
2023/06/15 05:46:16;;;;;;;0.10;0.10;;;;;;;;;;5111204;28;20047;-47
2023/06/15 05:48:41;;;;;;;0.10;0.10;;;;;;;;;;5109777;28;20042;-46
2023/06/15 05:51:07;;;;;;;0.10;0.10;;;;;;;;;;5111729;27;20055;-47
2023/06/15 05:53:32;;;;;;;0.10;0.10;;;;;;;;;;5109367;28;20043;-47
2023/06/15 05:55:58;;;;;;;0.10;0.10;;;;;;;;;;5107195;28;20054;-48
2023/06/15 05:58:24;;;;;;;0.10;0.10;;;;;;;;;;5104545;28;20487;-48
2023/06/15 06:00:49;;;;;;;0.10;0.10;;;;;;;;;;5105152;27;20039;-49
2023/06/15 06:03:15;;;;;;;0.10;0.10;;;;;;;;;;5102946;28;20536;-57
2023/06/15 06:05:40;;;;;;;0.10;0.10;;;;;;;;;;5094391;27;20044;-49
2023/06/15 06:08:06;;;;;;;0.10;0.10;;;;;;;;;;5097083;28;20073;-49
2023/06/15 06:10:31;;;;;;;0.20;0.20;;;;;;;;;;5112675;27;20485;-46
2023/06/15 06:12:57;;;;;;;0.10;0.10;;;;;;;;;;5101284;28;20126;-47
2023/06/15 06:15:23;;;;;;;0.15;0.15;;;;;;;;;;5099174;28;20043;-59
2023/06/15 06:17:49;;;;;;;0.10;0.10;;;;;;;;;;5103413;27;20341;-48
2023/06/15 06:20:33;;;;;;;0.10;0.10;;;;;;;;;;5107408;27;20051;-49
2023/06/15 06:22:59;;;;;;;0.10;0.10;;;;;;;;;;5117275;27;20541;-46
2023/06/15 06:25:24;;;;;;;0.10;0.10;;;;;;;;;;5110951;28;20171;-47
2023/06/15 06:27:50;;;;;;;0.10;0.10;;;;;;;;;;5109903;28;20221;-48
2023/06/15 06:30:15;;;;;;;0.10;0.10;;;;;;;;;;5112427;27;20546;-52
2023/06/15 06:32:41;;;;;;;0.10;0.10;;;;;;;;;;5106468;27;20082;-62
2023/06/15 06:35:07;;;;;;;0.10;0.10;;;;;;;;;;5106100;28;20060;-56
2023/06/15 06:37:32;;;;;;;0.10;0.10;;;;;;;;;;5101371;28;20157;-49
2023/06/15 06:39:58;;;;;;;0.32;0.32;;;;;;;;;;5100868;27;20059;-49
2023/06/15 06:42:24;;;;;;;0.10;0.10;;;;;;;;;;5094645;28;20085;-46
2023/06/15 06:44:49;;;;;;;0.10;0.10;;;;;;;;;;5104073;28;20472;-47
2023/06/15 06:47:15;;;;;;;0.10;0.10;;;;;;;;;;5099906;28;20101;-47
2023/06/15 06:49:40;;;;;;;0.10;0.10;;;;;;;;;;5077765;27;20622;-49
2023/06/15 06:52:06;;;;;;;0.13;0.13;;;;;;;;;;5097323;27;20515;-58
2023/06/15 06:54:31;;;;;;;0.20;0.20;;;;;;;;;;5091974;27;20068;-46
2023/06/15 06:56:57;;;;;;;0.10;0.10;;;;;;;;;;5096546;27;20435;-45
2023/06/15 06:59:22;;;;;;;0.10;0.10;;;;;;;;;;5101114;28;20492;-47
2023/06/15 07:02:08;;;;;;;0.10;0.10;;;;;;;;;;5101064;28;20055;-47
2023/06/15 07:04:33;;;;;;;0.10;0.10;;;;;;;;;;5094609;28;20111;-46
2023/06/15 07:07:00;;;;;;;0.10;0.10;;;;;;;;;;5091320;28;20054;-47
2023/06/15 07:09:25;;;;;;;0.10;0.10;;;;;;;;;;5089087;27;20268;-47
2023/06/15 07:11:51;;;;;;;0.10;0.10;;;;;;;;;;5091395;27;20055;-48
2023/06/15 07:14:16;;;;;;;0.20;0.20;;;;;;;;;;5092684;28;20306;-47
2023/06/15 07:16:42;;;;;;;0.10;0.10;;;;;;;;;;5097999;28;20788;-47
2023/06/15 07:19:07;;;;;;;0.10;0.10;;;;;;;;;;5088349;27;20566;-46
2023/06/15 07:21:33;;;;;;;0.10;0.10;;;;;;;;;;5095001;27;20138;-46
2023/06/15 07:23:58;;;;;;;0.10;0.10;;;;;;;;;;5105683;28;20074;-46
2023/06/15 07:26:24;;;;;;;0.10;0.10;;;;;;;;;;5096345;27;20794;-46
2023/06/15 07:28:50;;;;;;;0.10;0.10;;;;;;;;;;5097302;28;20071;-47
2023/06/15 07:31:16;;;;;;;0.10;0.10;;;;;;;;;;5099404;27;20282;-47
2023/06/15 07:33:41;;;;;;;0.10;0.10;;;;;;;;;;5104002;27;20043;-46
2023/06/15 07:36:07;;;;;;;0.10;0.10;;;;;;;;;;5099561;27;20294;-59
2023/06/15 07:38:32;;;;;;;0.10;0.10;;;;;;;;;;5105197;27;20133;-49
2023/06/15 07:40:58;;;;;;;0.10;0.10;;;;;;;;;;5112103;27;20085;-55
2023/06/15 07:43:23;;;;;;;0.10;0.10;;;;;;;;;;5109553;27;20453;-55
2023/06/15 07:45:49;;;;;;;0.10;0.10;;;;;;;;;;5106540;27;20050;-49
2023/06/15 07:48:14;;;;;;;0.10;0.10;;;;;;;;;;5104037;28;20058;-65
2023/06/15 07:50:40;;;;;;;0.10;0.10;;;;;;;;;;5112052;27;20047;-48
2023/06/15 07:53:06;;;;;;;0.10;0.10;;;;;;;;;;5108757;27;20047;-47
2023/06/15 07:55:31;;;;;;;0.10;0.10;;;;;;;;;;5094417;27;20246;-49
2023/06/15 07:57:57;;;;;;;0.10;0.10;;;;;;;;;;5106436;27;20043;-50
2023/06/15 08:00:22;;;;;;;0.10;0.10;;;;;;;;;;5106038;27;20560;-47
2023/06/15 08:02:48;;;;;;;0.10;0.10;;;;;;;;;;5075801;27;20688;-48
2023/06/15 08:05:15;;;;;;;0.10;0.10;;;;;;;;;;5101080;27;20647;-48
2023/06/15 08:07:41;;;;;;;0.10;0.10;;;;;;;;;;5095839;27;20054;-48
2023/06/15 08:10:06;;;;;;;0.10;0.10;;;;;;;;;;5092074;27;20077;-48
2023/06/15 08:12:32;;;;;;;0.10;0.10;;;;;;;;;;5075414;28;20051;-48
2023/06/15 08:14:57;;;;;;;0.10;0.10;;;;;;;;;;5098463;28;20058;-47
2023/06/15 08:17:24;;;;;;;0.10;0.10;;;;;;;;;;5100623;28;20047;-47
2023/06/15 08:19:49;;;;;;;0.17;0.10;;;;;;;;;;5106573;27;20051;-50
2023/06/15 08:22:15;;;;;;;0.10;0.10;;;;;;;;;;5100333;27;20078;-47
2023/06/15 08:24:40;;;;;;;0.10;0.10;;;;;;;;;;5100972;27;20714;-49
2023/06/15 08:27:07;;;;;;;0.10;0.10;;;;;;;;;;5104993;27;20039;-47
2023/06/15 08:29:33;;;;;;;0.10;0.10;;;;;;;;;;5101718;27;20078;-48
2023/06/15 08:31:59;;;;;;;0.10;0.10;;;;;;;;;;5096856;27;20328;-50
2023/06/15 08:34:24;;;;;;;0.10;0.10;;;;;;;;;;5090548;28;20175;-51
2023/06/15 08:36:50;;;;;;;0.10;0.10;;;;;;;;;;5093673;28;20413;-47
2023/06/15 08:39:16;;;;;;;0.10;0.10;;;;;;;;;;5097836;27;20054;-48
2023/06/15 08:41:44;;;;;;;0.10;0.10;;;;;;;;;;5102904;27;20262;-48
2023/06/15 08:44:10;;;;;;;0.03;0.03;;;;;;;;;;5102297;28;20069;-50
2023/06/15 08:46:36;;;;;;;0.10;0.10;;;;;;;;;;5101710;28;20090;-49
2023/06/15 08:49:02;;;;;;;0.10;0.10;;;;;;;;;;5103667;28;20047;-48
2023/06/15 08:51:28;;;;;;;0.10;0.10;;;;;;;;;;5095108;27;20339;-49
2023/06/15 08:53:55;;;;;;;0.15;0.15;;;;;;;;;;5101121;27;20579;-48
2023/06/15 08:56:21;;;;;;;0.10;0.10;;;;;;;;;;5086449;28;20039;-51
2023/06/15 08:58:49;;;;;;;0.10;0.10;;;;;;;;;;5099707;27;20388;-48
2023/06/15 09:01:18;;;;;;;0.20;0.20;;;;;;;;;;5103766;27;20478;-50
2023/06/15 09:03:44;;;;;;;0.10;0.10;;;;;;;;;;5110464;27;20100;-48
2023/06/15 09:06:10;;;;;;;0.10;0.10;;;;;;;;;;5103460;27;20142;-49
2023/06/15 09:08:35;;;;;;;0.10;0.10;;;;;;;;;;5098407;27;20656;-49
2023/06/15 09:11:08;;;;;;;0.10;0.10;;;;;;;;;;5102087;27;20305;-49
2023/06/15 09:13:34;;;;;;;0.10;0.10;;;;;;;;;;5088547;28;20055;-49
2023/06/15 09:16:00;;;;;;;0.10;0.10;;;;;;;;;;5089084;28;20047;-47
2023/06/15 09:18:26;;;;;;;0.10;0.10;;;;;;;;;;5097298;27;20119;-48
2023/06/15 09:20:52;;;;;;;0.10;0.10;;;;;;;;;;5102938;27;20151;-47
2023/06/15 09:23:17;;;;;;;0.10;0.10;;;;;;;;;;5080822;28;20073;-50
2023/06/15 09:25:52;;;;;;;0.10;0.10;;;;;;;;;;5103310;28;20039;-49
2023/06/15 09:28:22;;;;;;;0.10;0.10;;;;;;;;;;5099183;28;20534;-49
2023/06/15 09:30:51;;;;;;;0.10;0.10;;;;;;;;;;5110238;27;20155;-48
2023/06/15 09:33:18;;;;;;;0.10;0.10;;;;;;;;;;5087532;27;20064;-47
2023/06/15 09:35:56;;;;;;;0.10;0.10;;;;;;;;;;5083767;27;20078;-48
2023/06/15 09:38:21;;;;;;;0.10;0.10;;;;;;;;;;5097320;27;20126;-51
2023/06/15 09:40:47;;;;;;;0.80;0.30;;;;;;;;;;5063623;28;20047;-49
2023/06/15 09:43:13;;;;;;;0.10;0.10;;;;;;;;;;5102442;27;20074;-49
2023/06/15 09:45:54;;;;;;;0.10;0.10;;;;;;;;;;5105365;27;20039;-50
2023/06/15 09:48:20;;;;;;;0.20;0.20;;;;;;;;;;5102940;27;20076;-49
2023/06/15 09:50:49;;;;;;;0.10;0.10;;;;;;;;;;5103021;27;20082;-50
2023/06/15 09:53:16;;;;;;;0.10;0.10;;;;;;;;;;5102418;27;20055;-49
2023/06/15 09:55:43;;;;;;;0.10;0.10;;;;;;;;;;5093022;28;20039;-49
2023/06/15 09:58:10;;;;;;;0.10;0.10;;;;;;;;;;5080279;28;20591;-50
2023/06/15 10:00:36;;;;;;;0.10;0.10;;;;;;;;;;5108660;27;20281;-47
2023/06/15 10:03:03;;;;;;;0.10;0.10;;;;;;;;;;5092956;27;20115;-48
2023/06/15 10:05:31;;;;;;;0.10;0.10;;;;;;;;;;5093217;27;20051;-47
2023/06/15 10:07:57;;;;;;;0.10;0.10;;;;;;;;;;5107717;27;20054;-48
2023/06/15 10:10:23;;;;;;;0.10;0.10;;;;;;;;;;5100146;27;20126;-48
2023/06/15 10:12:53;;;;;;;0.10;0.10;;;;;;;;;;5111271;27;20051;-48
2023/06/15 10:15:20;;;;;;;0.10;0.10;;;;;;;;;;5103754;27;20062;-48
2023/06/15 10:17:47;;;;;;;0.10;0.10;;;;;;;;;;5088179;28;20403;-48
2023/06/15 10:20:16;;;;;;;0.10;0.10;;;;;;;;;;5095496;27;20291;-47
2023/06/15 10:22:48;;;;;;;0.20;0.20;;;;;;;;;;5101030;28;20040;-49
2023/06/15 10:25:14;;;;;;;0.10;0.10;;;;;;;;;;5106197;27;20427;-47
2023/06/15 10:27:40;;;;;;;0.10;0.10;;;;;;;;;;5108161;27;20273;-51
2023/06/15 10:30:10;;;;;;;0.10;0.10;;;;;;;;;;5104151;27;20050;-47
2023/06/15 10:32:40;;;;;;;0.10;0.10;;;;;;;;;;5105043;28;20079;-48
2023/06/15 10:35:12;;;;;;;0.10;0.10;;;;;;;;;;5101484;27;20482;-47
2023/06/15 10:37:43;;;;;;;0.20;0.20;;;;;;;;;;5106100;28;20047;-46
2023/06/15 10:40:13;;;;;;;0.10;0.10;;;;;;;;;;5061965;28;20044;-47
2023/06/15 10:42:41;;;;;;;0.10;0.10;;;;;;;;;;5065191;28;20047;-48
2023/06/15 10:45:28;;;;;;;0.10;0.10;;;;;;;;;;5084622;28;20052;-47
2023/06/15 10:47:55;;;;;;;0.10;0.10;;;;;;;;;;5074510;28;20044;-48
2023/06/15 10:50:21;;;;;;;0.20;0.20;;;;;;;;;;5089933;28;20190;-57
2023/06/15 10:52:47;;;;;;;0.10;0.10;;;;;;;;;;5083819;28;20363;-47
2023/06/15 10:55:14;;;;;;;0.10;0.10;;;;;;;;;;5087724;28;20071;-49
2023/06/15 10:57:40;;;;;;;0.10;0.10;;;;;;;;;;5087684;28;20187;-48
2023/06/15 11:00:07;;;;;;;0.10;0.10;;;;;;;;;;5090428;28;20044;-47
2023/06/15 11:05:09;;;;;;;0.10;0.10;;;;;;;;;;5135997;27;20575;-49
2023/06/15 11:07:37;;;;;;;0.25;0.25;;;;;;;;;;5147401;27;21106;-47
2023/06/15 11:10:03;;;;;;;0.10;0.10;;;;;;;;;;5142310;27;20058;-51
2023/06/15 11:12:36;;;;;;;0.10;0.10;;;;;;;;;;5145662;27;20774;-47
2023/06/15 11:15:03;;;;;;;0.10;0.10;;;;;;;;;;5151027;27;20049;-47
2023/06/15 11:17:29;;;;;;;0.10;0.10;;;;;;;;;;5148546;27;20051;-48
2023/06/15 11:19:56;;;;;;;0.10;0.10;;;;;;;;;;5151148;27;20572;-47
2023/06/15 11:22:28;;;;;;;0.10;0.10;;;;;;;;;;5127312;27;20042;-47
2023/06/15 11:24:55;;;;;;;0.10;0.10;;;;;;;;;;5132357;27;20081;-48
2023/06/15 11:27:22;;;;;;;0.10;0.10;;;;;;;;;;5140481;27;20325;-51
2023/06/15 11:29:55;;;;;;;0.10;0.10;;;;;;;;;;5144203;27;20047;-46
2023/06/15 11:32:27;;;;;;;0.10;0.10;;;;;;;;;;5135540;27;20281;-49
2023/06/15 11:34:55;;;;;;;0.10;0.10;;;;;;;;;;5141444;27;20046;-48
2023/06/15 11:37:22;;;;;;;0.10;0.10;;;;;;;;;;5130615;27;20046;-47
2023/06/15 11:39:47;;;;;;;0.10;0.10;;;;;;;;;;5141764;27;20228;-47
2023/06/15 11:42:14;;;;;;;0.10;0.10;;;;;;;;;;5143622;27;20517;-48
2023/06/15 11:44:41;;;;;;;0.10;0.10;;;;;;;;;;5136676;27;20042;-50
2023/06/15 11:47:10;;;;;;;0.10;0.10;;;;;;;;;;5149136;27;20042;-48
2023/06/15 11:49:35;;;;;;;0.10;0.10;;;;;;;;;;5139008;27;20065;-49
2023/06/15 11:52:02;;;;;;;0.10;0.10;;;;;;;;;;5135183;27;20062;-47
2023/06/15 11:54:29;;;;;;;0.10;0.10;;;;;;;;;;5117198;27;20426;-48
2023/06/15 11:57:15;;;;;;;0.10;0.10;;;;;;;;;;5118807;27;20081;-47
2023/06/15 11:59:41;;;;;;;0.10;0.10;;;;;;;;;;5134652;27;20122;-58
2023/06/15 12:02:07;;;;;;;0.10;0.10;;;;;;;;;;5140527;27;20050;-58
2023/06/15 12:04:32;;;;;;;0.10;0.10;;;;;;;;;;5146225;27;20081;-48
2023/06/15 12:07:00;;;;;;;0.30;0.30;;;;;;;;;;5144340;27;20055;-50
2023/06/15 12:09:26;;;;;;;0.10;0.10;;;;;;;;;;5141048;27;20055;-49
2023/06/15 12:11:52;;;;;;;0.10;0.10;;;;;;;;;;5145021;27;20265;-49
2023/06/15 12:14:23;;;;;;;0.10;0.10;;;;;;;;;;5139313;27;20458;-47
2023/06/15 12:16:50;;;;;;;0.10;0.10;;;;;;;;;;5106293;27;20503;-48
2023/06/15 12:19:16;;;;;;;0.10;0.10;;;;;;;;;;5109660;27;20336;-47
2023/06/15 12:21:43;;;;;;;0.17;0.17;;;;;;;;;;5129886;27;20266;-55
2023/06/15 12:24:23;;;;;;;0.10;0.10;;;;;;;;;;5104864;27;20115;-48
2023/06/15 12:26:50;;;;;;;0.10;0.10;;;;;;;;;;5122422;27;20479;-49
2023/06/15 12:29:17;;;;;;;0.10;0.10;;;;;;;;;;5114930;27;20078;-47
2023/06/15 12:31:46;;;;;;;0.10;0.10;;;;;;;;;;5107389;27;20047;-48
2023/06/15 12:34:11;;;;;;;0.10;0.10;;;;;;;;;;5125107;27;20078;-49
2023/06/15 12:36:38;;;;;;;0.10;0.10;;;;;;;;;;5126044;27;20456;-48
2023/06/15 12:39:05;;;;;;;0.10;0.10;;;;;;;;;;5118565;27;20051;-48
2023/06/15 12:41:30;;;;;;;0.10;0.10;;;;;;;;;;5120793;27;20552;-50
2023/06/15 12:43:56;;;;;;;0.10;0.10;;;;;;;;;;5122896;27;20045;-51
2023/06/15 12:46:21;;;;;;;0.10;0.10;;;;;;;;;;5120781;27;20054;-51
2023/06/15 12:48:47;;;;;;;0.10;0.10;;;;;;;;;;5117520;27;20035;-50
2023/06/15 12:51:12;;;;;;;0.10;0.10;;;;;;;;;;5118371;27;20050;-47
2023/06/15 12:53:38;;;;;;;0.10;0.10;;;;;;;;;;5122396;27;20054;-55
2023/06/15 12:56:04;;;;;;;0.10;0.10;;;;;;;;;;5129911;27;20047;-47
2023/06/15 12:58:29;;;;;;;0.10;0.10;;;;;;;;;;5125902;27;20066;-48
2023/06/15 13:00:55;;;;;;;0.20;0.20;;;;;;;;;;5124364;27;20126;-48
2023/06/15 13:03:20;;;;;;;0.22;0.20;;;;;;;;;;5122575;27;20488;-47
2023/06/15 13:05:46;;;;;;;0.10;0.10;;;;;;;;;;5119590;27;20585;-47
2023/06/15 13:08:14;;;;;;;0.10;0.10;;;;;;;;;;5121564;27;20073;-49
2023/06/15 13:10:39;;;;;;;0.10;0.10;;;;;;;;;;5128293;27;20146;-48
2023/06/15 13:13:05;;;;;;;0.10;0.10;;;;;;;;;;5116301;27;20444;-48
2023/06/15 13:15:31;;;;;;;0.10;0.10;;;;;;;;;;5129139;27;20101;-48
2023/06/15 13:17:56;;;;;;;0.10;0.10;;;;;;;;;;5113504;27;20059;-48
2023/06/15 13:20:22;;;;;;;0.10;0.10;;;;;;;;;;5117716;27;20513;-47
2023/06/15 13:22:49;;;;;;;0.10;0.10;;;;;;;;;;5113062;27;20066;-49
2023/06/15 13:25:15;;;;;;;0.10;0.10;;;;;;;;;;5113897;27;20035;-49
2023/06/15 13:27:40;;;;;;;0.10;0.10;;;;;;;;;;5099782;27;20094;-49
2023/06/15 13:30:07;;;;;;;0.10;0.10;;;;;;;;;;5131034;27;20047;-47
2023/06/15 13:32:33;;;;;;;0.10;0.10;;;;;;;;;;5102815;27;20071;-48
2023/06/15 13:34:59;;;;;;;0.20;0.20;;;;;;;;;;5122868;27;20086;-46
2023/06/15 13:37:25;;;;;;;0.10;0.10;;;;;;;;;;5118077;27;20124;-50
2023/06/15 13:39:51;;;;;;;0.10;0.10;;;;;;;;;;5125362;27;20035;-48
2023/06/15 13:42:16;;;;;;;0.10;0.10;;;;;;;;;;5112103;27;20047;-47
2023/06/15 13:44:42;;;;;;;0.10;0.10;;;;;;;;;;5122091;27;20126;-47
2023/06/15 13:47:07;;;;;;;0.10;0.10;;;;;;;;;;5119910;27;20160;-48
2023/06/15 13:49:33;;;;;;;0.10;0.10;;;;;;;;;;5123962;27;20106;-50
2023/06/15 13:52:00;;;;;;;0.17;0.17;;;;;;;;;;5117334;27;20078;-49
2023/06/15 13:54:26;;;;;;;0.10;0.10;;;;;;;;;;5120279;27;20054;-48
2023/06/15 13:56:52;;;;;;;0.10;0.10;;;;;;;;;;5128526;27;20320;-46
2023/06/15 13:59:18;;;;;;;0.10;0.10;;;;;;;;;;5122756;27;20059;-48
2023/06/15 14:01:43;;;;;;;0.10;0.10;;;;;;;;;;5116182;27;20053;-47
2023/06/15 14:04:09;;;;;;;0.10;0.10;;;;;;;;;;5114905;27;20510;-48
2023/06/15 14:06:35;;;;;;;0.20;0.20;;;;;;;;;;5119306;27;20043;-50
2023/06/15 14:09:01;;;;;;;0.10;0.10;;;;;;;;;;5114579;27;20043;-48
2023/06/15 14:11:26;;;;;;;0.10;0.10;;;;;;;;;;5119685;27;20039;-49
2023/06/15 14:13:52;;;;;;;0.10;0.10;;;;;;;;;;5116751;27;20132;-48
2023/06/15 14:16:19;;;;;;;0.10;0.10;;;;;;;;;;5121185;27;20392;-48
2023/06/15 14:18:45;;;;;;;0.10;0.10;;;;;;;;;;5104804;27;20051;-48
2023/06/15 14:21:11;;;;;;;0.10;0.10;;;;;;;;;;5101099;27;20153;-49
2023/06/15 14:23:37;;;;;;;0.10;0.10;;;;;;;;;;5122672;27;20126;-46
2023/06/15 14:26:02;;;;;;;0.10;0.10;;;;;;;;;;5120856;27;20038;-48
2023/06/15 14:28:28;;;;;;;0.10;0.10;;;;;;;;;;5119549;27;20231;-49
2023/06/15 14:30:54;;;;;;;0.10;0.10;;;;;;;;;;5122522;27;20046;-47
2023/06/15 14:33:19;;;;;;;0.10;0.10;;;;;;;;;;5119536;27;20039;-49
2023/06/15 14:35:45;;;;;;;0.10;0.10;;;;;;;;;;5121353;27;20045;-48
2023/06/15 14:38:10;;;;;;;0.10;0.10;;;;;;;;;;5122758;27;20039;-49
2023/06/15 14:40:36;;;;;;;0.10;0.10;;;;;;;;;;5120141;27;20047;-49
2023/06/15 14:43:01;;;;;;;0.10;0.10;;;;;;;;;;5122988;27;20542;-47